Detalii statie SADELLI PRODCOM [00001D03]

Toti senzorii

Date Temperatura solului [C]Precipitatii [mm]Voltaj baterie [mV]Leaf Wetness [Min]HC Air temperature [C]HC Relative humidity [%]Punctul de roua [C]
medieminmaxsumaultimatimpmedieminmaxmediemediemin
2019-08-15 19:00:00 24.4 24.1 24.7 0 7176 19.99 19.31 20.5 0 0 0
2019-08-15 20:00:00 23.6 23.3 24.1 0 6796 18.95 18.34 19.35 0 0 0
2019-08-15 21:00:00 23 22.8 23.4 0 6786 18.15 17.5 18.52 0 0 0
2019-08-15 22:00:00 22.3 22.1 22.8 0 6776 16.67 15.96 17.47 0 0 0
2019-08-15 23:00:00 21.7 21.5 22 0 6766 15.07 14.27 15.86 0 0 0
2019-08-16 00:00:00 21.1 20.9 21.5 0 6766 13.47 12.91 14.15 0 0 0
2019-08-16 01:00:00 20.6 20.4 21 0 6738 12.43 12.18 12.84 0 0 0
2019-08-16 02:00:00 20 19.8 20.3 0 6728 11.72 11.47 12.13 0 0 0
2019-08-16 03:00:00 19.6 19.4 19.9 0 6718 11.25 10.92 11.5 0 0 0
2019-08-16 04:00:00 19.2 19.1 19.4 0 6698 10.96 10.8 11.31 0 0 0
2019-08-16 05:00:00 18.9 18.7 19.1 0 6688 10.87 10.49 11.22 0 0 0
2019-08-16 06:00:00 18.6 18.5 18.9 0 6688 10.16 10.02 10.4 0 0 0
2019-08-16 07:00:00 18.3 18.3 18.5 0.2 6756 11.13 10.08 12.39 0 0 0
2019-08-16 08:00:00 18.5 18.3 18.9 0 6894 14.31 12.74 16.2 0 0 0
2019-08-16 09:00:00 19.4 19 19.9 0 7040 18.59 16.45 19.85 0 0 0
2019-08-16 10:00:00 20.5 20 21.1 0 7196 20.75 19.24 22.9 0 0 0
2019-08-16 11:00:00 21.9 21.1 23.1 0 7196 23.63 22.73 24.52 0 0 0
2019-08-16 12:00:00 24.4 23.3 25.6 0 7196 24.64 23.09 25.74 0 0 0
2019-08-16 13:00:00 26.9 25.8 27.9 0 7186 26.51 25.54 27.36 0 0 0
2019-08-16 14:00:00 28.9 28.2 29.7 0 7158 26.68 24.95 28.28 0 0 0
2019-08-16 15:00:00 29.5 29.3 29.8 0 7176 25.62 24.52 27.78 0 0 0
2019-08-16 16:00:00 29.1 28.9 29.5 0 7196 26.43 24.28 28.31 0 0 0
2019-08-16 17:00:00 29.3 29.1 29.5 0 7186 25.89 24.65 27.51 0 0 0
2019-08-16 18:00:00 28.6 28.1 29.1 0 7176 26.39 24.48 27.76 0 0 0
2019-08-16 19:00:00 27.3 26.8 28 0 7176 24.26 23.15 24.99 0 0 0
2019-08-16 20:00:00 26.1 25.6 26.8 0 6776 21.08 20.04 22.82 0 0 0
2019-08-16 21:00:00 24.9 24.4 25.5 0 6766 18.99 17.5 20.25 0 0 0
2019-08-16 22:00:00 24 23.7 24.4 0 6756 16.78 16.4 17.3 0 0 0
2019-08-16 23:00:00 23.3 23 23.6 0 6756 16.06 15.21 16.7 0 0 0
2019-08-17 00:00:00 22.7 22.4 23 0 6748 15.3 15.19 15.56 0 0 0
2019-08-17 01:00:00 22.1 21.8 22.4 0 6738 15.24 14.8 15.58 0 0 0
2019-08-17 02:00:00 21.7 21.6 21.9 0 6728 15.11 14.54 15.49 0 0 0
2019-08-17 03:00:00 21.3 21.1 21.6 0 6708 14.63 14.03 15.01 0 0 0
2019-08-17 04:00:00 20.8 20.6 21.1 0 6708 14.49 14.11 15 0 0 0
2019-08-17 05:00:00 20.6 20.3 20.7 0 6688 14.44 14.18 14.92 0 0 0
2019-08-17 06:00:00 20.2 20.1 20.4 0 6698 13.98 13.13 14.32 0 0 0
2019-08-17 07:00:00 20.1 20 20.2 0 6796 14.34 13.42 15 0 0 0
2019-08-17 08:00:00 20.3 20.1 20.5 0 6962 16.47 15.3 17.65 0 0 0
2019-08-17 09:00:00 20.9 20.7 21.1 0 7070 18.16 16.94 20.53 0 0 0
2019-08-17 10:00:00 21.6 21.2 22.3 0 7206 22.5 20.84 24.41 0 0 0
2019-08-17 11:00:00 23.2 22.4 24.5 0 7196 25.01 24.11 26.09 0 0 0
2019-08-17 12:00:00 25.7 24.5 26.9 0 7186 26.75 26.36 27.29 0 0 0
2019-08-17 13:00:00 28.2 27.5 29.1 0 7196 27.28 25.44 28.2 0 0 0
2019-08-17 14:00:00 30.1 29.3 30.9 0 7186 27.97 26.61 29.05 0 0 0
2019-08-17 15:00:00 31.3 31.1 31.5 0 7196 27.25 26.1 28.37 0 0 0
2019-08-17 16:00:00 31.3 31.1 31.5 0 7186 27.6 27.01 28.24 0 0 0
2019-08-17 17:00:00 31.5 31.5 31.7 0 7196 27.88 26.77 28.89 0 0 0
2019-08-17 18:00:00 30.9 30.3 31.5 0 7176 27.4 26.8 28.01 0 0 0